createdAt,value
2019-06-26T00:00:50.428Z,2.10
2019-06-26T00:03:56.860Z,2.20
2019-06-26T00:07:03.318Z,2.02
2019-06-26T00:10:09.902Z,2.37
2019-06-26T00:13:25.696Z,2.02
2019-06-26T00:16:25.569Z,2.05
2019-06-26T00:19:32.121Z,1.85
2019-06-26T00:22:38.520Z,2.12
2019-06-26T00:25:44.886Z,2.10
2019-06-26T00:28:51.544Z,2.05
2019-06-26T00:31:58.217Z,2.45
2019-06-26T00:35:05.224Z,2.10
2019-06-26T00:38:11.660Z,2.35
2019-06-26T00:41:18.081Z,2.42
2019-06-26T00:44:24.568Z,2.02
2019-06-26T00:47:31.170Z,2.30
2019-06-26T00:50:37.586Z,2.20
2019-06-26T00:53:44.126Z,2.25
2019-06-26T00:56:51.974Z,2.58
2019-06-26T00:59:58.504Z,2.27
2019-06-26T01:03:04.961Z,2.50
2019-06-26T01:06:30.486Z,2.20
2019-06-26T01:09:37.974Z,2.77
2019-06-26T01:12:45.387Z,2.55
2019-06-26T01:15:51.824Z,2.37
2019-06-26T01:18:58.421Z,2.50
2019-06-26T01:22:04.962Z,2.30
2019-06-26T01:25:11.858Z,2.70
2019-06-26T01:28:18.306Z,2.40
2019-06-26T01:31:24.729Z,2.00
2019-06-26T01:34:32.856Z,2.37
2019-06-26T01:37:39.910Z,2.52
2019-06-26T01:40:46.340Z,2.37
2019-06-26T01:43:52.961Z,2.65
2019-06-26T01:47:06.512Z,2.92
2019-06-26T01:50:12.992Z,2.47
2019-06-26T01:53:21.356Z,2.55
2019-06-26T01:56:27.701Z,2.47
2019-06-26T01:59:34.175Z,2.40
2019-06-26T02:02:40.585Z,2.70
2019-06-26T02:05:46.999Z,2.33
2019-06-26T02:08:53.303Z,2.63
2019-06-26T02:12:00.595Z,2.70
2019-06-26T02:15:07.339Z,2.75
2019-06-26T02:18:31.590Z,2.65
2019-06-26T02:21:38.569Z,2.35
2019-06-26T02:24:44.954Z,2.80
2019-06-26T02:27:53.178Z,2.40
2019-06-26T02:30:59.566Z,2.70
2019-06-26T02:34:05.988Z,2.62
2019-06-26T02:37:12.435Z,2.67
2019-06-26T02:40:19.133Z,3.05
2019-06-26T02:43:25.563Z,3.05
2019-06-26T02:46:32.057Z,2.98
2019-06-26T02:49:38.564Z,2.87
2019-06-26T02:52:44.961Z,2.60
2019-06-26T02:55:51.345Z,3.02
2019-06-26T02:58:57.812Z,2.55
2019-06-26T03:02:04.466Z,3.15
2019-06-26T03:05:10.921Z,2.85
2019-06-26T03:08:17.274Z,3.02
2019-06-26T03:11:23.759Z,2.95
2019-06-26T03:14:30.293Z,3.17
2019-06-26T03:17:36.875Z,2.98
2019-06-26T03:20:47.012Z,3.47
2019-06-26T03:23:53.666Z,3.27
2019-06-26T03:27:00.162Z,3.30
2019-06-26T03:30:06.755Z,3.42
2019-06-26T03:33:13.200Z,2.92
2019-06-26T03:36:19.687Z,3.30
2019-06-26T03:39:26.126Z,3.10
2019-06-26T03:42:34.731Z,3.25
2019-06-26T03:45:41.205Z,3.37
2019-06-26T03:48:47.665Z,3.10
2019-06-26T03:51:54.142Z,3.20
2019-06-26T03:55:00.618Z,2.65
2019-06-26T03:58:07.008Z,3.45
2019-06-26T04:01:13.367Z,3.40
2019-06-26T04:04:19.756Z,2.75
2019-06-26T04:07:26.171Z,2.90
2019-06-26T04:10:33.702Z,2.90
2019-06-26T04:13:40.101Z,2.90
2019-06-26T04:16:46.541Z,3.30
2019-06-26T04:19:52.945Z,3.20
2019-06-26T04:22:59.743Z,3.50
2019-06-26T04:26:06.549Z,3.23
2019-06-26T04:29:12.952Z,2.80
2019-06-26T04:32:19.358Z,3.10
2019-06-26T04:35:25.810Z,3.10
2019-06-26T04:38:32.116Z,3.33
2019-06-26T04:41:38.596Z,3.40
2019-06-26T04:44:45.806Z,2.92
2019-06-26T04:47:52.159Z,3.12
2019-06-26T04:50:58.638Z,3.33
2019-06-26T04:54:05.093Z,3.58
2019-06-26T04:57:11.508Z,3.30
2019-06-26T05:00:21.640Z,3.42
2019-06-26T05:03:26.299Z,3.58
2019-06-26T05:06:32.803Z,3.98
2019-06-26T05:09:39.263Z,4.17
2019-06-26T05:12:45.776Z,3.83
2019-06-26T05:15:52.237Z,3.77
2019-06-26T05:18:58.704Z,3.50
2019-06-26T05:22:04.985Z,3.50
2019-06-26T05:25:12.220Z,3.77
2019-06-26T05:28:21.108Z,3.52
2019-06-26T05:31:27.603Z,3.70
2019-06-26T05:34:34.078Z,3.83
2019-06-26T05:37:40.525Z,3.42
2019-06-26T05:40:47.023Z,3.77
2019-06-26T05:43:53.379Z,3.77
2019-06-26T05:47:01.700Z,4.50
2019-06-26T05:50:08.631Z,4.60
2019-06-26T05:53:15.020Z,4.00
2019-06-26T05:56:21.483Z,3.77
2019-06-26T05:59:27.755Z,3.47
2019-06-26T06:02:34.199Z,3.30
2019-06-26T06:05:40.892Z,3.70
2019-06-26T06:08:47.405Z,3.00
2019-06-26T06:11:53.766Z,3.10
2019-06-26T06:15:00.147Z,3.52
2019-06-26T06:18:06.575Z,3.90
2019-06-26T06:21:12.945Z,3.62
2019-06-26T06:24:19.718Z,3.40
2019-06-26T06:27:27.212Z,3.98
2019-06-26T06:30:33.864Z,3.65
2019-06-26T06:33:40.286Z,3.73
2019-06-26T06:36:46.771Z,3.40
2019-06-26T06:39:53.044Z,3.30
2019-06-26T06:42:59.623Z,3.60
2019-06-26T06:46:06.117Z,3.95
2019-06-26T06:49:12.942Z,3.25
2019-06-26T06:52:19.276Z,3.50
2019-06-26T06:55:25.647Z,3.47
2019-06-26T06:58:32.131Z,3.23
2019-06-26T07:01:38.613Z,3.30
2019-06-26T07:04:45.050Z,2.92
2019-06-26T07:07:51.524Z,4.03
2019-06-26T07:10:57.931Z,3.10
2019-06-26T07:14:04.424Z,3.73
2019-06-26T07:17:20.424Z,4.40
2019-06-26T07:20:18.944Z,3.55
2019-06-26T07:23:25.478Z,3.87
2019-06-26T07:26:31.997Z,3.42
2019-06-26T07:29:38.367Z,4.00
2019-06-26T07:32:45.122Z,3.47
2019-06-26T07:35:51.684Z,3.77
2019-06-26T07:38:58.521Z,3.20
2019-06-26T07:42:04.980Z,3.50
2019-06-26T07:45:12.524Z,4.08
2019-06-26T07:48:20.566Z,4.05
2019-06-26T07:51:27.499Z,3.50
2019-06-26T07:54:33.912Z,3.95
2019-06-26T07:57:40.379Z,3.50
2019-06-26T08:00:46.779Z,3.33
2019-06-26T08:03:53.218Z,3.60
2019-06-26T08:06:59.550Z,3.60
2019-06-26T08:10:06.969Z,4.30
2019-06-26T08:13:13.301Z,3.73
2019-06-26T08:16:19.721Z,3.42
2019-06-26T08:19:26.130Z,3.17
2019-06-26T08:22:32.623Z,3.50
2019-06-26T08:25:39.054Z,3.83
2019-06-26T08:28:45.676Z,3.80
2019-06-26T08:31:51.922Z,3.13
2019-06-26T08:34:58.664Z,3.87
2019-06-26T08:38:12.461Z,3.55
2019-06-26T08:41:13.353Z,3.60
2019-06-26T08:44:19.804Z,4.03
2019-06-26T08:47:26.526Z,3.50
2019-06-26T08:50:33.008Z,3.97
2019-06-26T08:53:39.690Z,3.20
2019-06-26T08:56:46.137Z,3.25
2019-06-26T08:59:52.431Z,3.30
2019-06-26T09:02:58.780Z,3.60
2019-06-26T09:06:05.267Z,3.70
2019-06-26T09:09:11.614Z,3.17
2019-06-26T09:12:18.234Z,3.40
2019-06-26T09:15:24.702Z,3.47
2019-06-26T09:18:35.823Z,3.50
2019-06-26T09:21:39.195Z,3.47
2019-06-26T09:24:45.754Z,3.45
2019-06-26T09:27:52.215Z,3.23
2019-06-26T09:30:58.627Z,3.40
2019-06-26T09:34:05.369Z,3.33
2019-06-26T09:37:13.143Z,3.47
2019-06-26T09:40:19.622Z,3.30
2019-06-26T09:43:26.117Z,3.22
2019-06-26T09:46:32.461Z,3.50
2019-06-26T09:49:38.842Z,3.42
2019-06-26T09:52:45.298Z,3.62
2019-06-26T09:55:51.882Z,3.30
2019-06-26T09:58:58.205Z,3.27
2019-06-26T10:02:04.816Z,3.43
2019-06-26T10:05:13.511Z,3.80
2019-06-26T10:08:19.935Z,3.95
2019-06-26T10:11:26.380Z,3.70
2019-06-26T10:14:46.629Z,3.87
2019-06-26T10:17:41.063Z,3.30
2019-06-26T10:20:47.577Z,3.50
2019-06-26T10:23:54.023Z,3.10
2019-06-26T10:27:00.550Z,3.42
2019-06-26T10:30:08.523Z,3.62
2019-06-26T10:33:16.068Z,3.17
2019-06-26T10:36:24.582Z,3.20
2019-06-26T10:39:30.921Z,3.50
2019-06-26T10:42:37.391Z,3.60
2019-06-26T10:45:43.922Z,3.12
2019-06-26T10:48:50.289Z,3.40
2019-06-26T10:51:56.841Z,3.87
2019-06-26T10:55:03.399Z,3.90
2019-06-26T10:58:10.307Z,3.87
2019-06-26T11:01:16.744Z,4.42
2019-06-26T11:04:23.200Z,4.12
2019-06-26T11:07:29.723Z,3.30
2019-06-26T11:10:36.238Z,3.80
2019-06-26T11:13:42.746Z,3.50
2019-06-26T11:16:50.801Z,3.67
2019-06-26T11:19:57.252Z,3.42
2019-06-26T11:23:03.699Z,3.65
2019-06-26T11:26:11.287Z,3.98
2019-06-26T11:29:17.693Z,3.77
2019-06-26T11:32:24.297Z,4.20
2019-06-26T11:35:30.867Z,3.42
2019-06-26T11:38:37.251Z,4.65
2019-06-26T11:41:43.977Z,4.22
2019-06-26T11:44:50.462Z,4.05
2019-06-26T11:47:56.988Z,3.40
2019-06-26T11:51:03.427Z,4.20
2019-06-26T11:54:09.782Z,3.92
2019-06-26T11:57:16.268Z,3.80
2019-06-26T12:00:24.043Z,4.65
2019-06-26T12:03:30.557Z,4.35
2019-06-26T12:06:37.064Z,5.12
2019-06-26T12:09:43.593Z,3.58
2019-06-26T12:12:50.091Z,4.83
2019-06-26T12:15:56.450Z,3.98
2019-06-26T12:19:02.975Z,3.45
2019-06-26T12:22:09.347Z,4.00
2019-06-26T12:25:15.837Z,4.03
2019-06-26T12:28:22.266Z,4.10
2019-06-26T12:31:28.998Z,4.03
2019-06-26T12:34:35.370Z,4.10
2019-06-26T12:37:41.940Z,4.12
2019-06-26T12:40:48.289Z,4.30
2019-06-26T12:43:55.012Z,4.15
2019-06-26T12:47:01.472Z,4.53
2019-06-26T12:50:09.867Z,4.33
2019-06-26T12:53:16.282Z,4.65
2019-06-26T12:56:22.633Z,3.90
2019-06-26T12:59:29.151Z,4.40
2019-06-26T13:02:36.450Z,4.45
2019-06-26T13:05:42.885Z,5.45
2019-06-26T13:08:50.521Z,5.70
2019-06-26T13:11:56.999Z,5.75
2019-06-26T13:15:03.635Z,5.15
2019-06-26T13:18:11.594Z,4.65
2019-06-26T13:21:18.005Z,5.05
2019-06-26T13:24:24.439Z,4.75
2019-06-26T13:27:30.973Z,5.03
2019-06-26T13:30:38.734Z,4.43
2019-06-26T13:33:45.164Z,4.03
2019-06-26T13:36:51.619Z,4.10
2019-06-26T13:39:57.970Z,4.62
2019-06-26T13:43:04.395Z,4.50
2019-06-26T13:46:11.118Z,5.33
2019-06-26T13:49:17.618Z,5.00
2019-06-26T13:52:24.065Z,5.25
2019-06-26T13:55:30.484Z,4.90
2019-06-26T13:58:36.816Z,5.40
2019-06-26T14:01:43.379Z,5.47
2019-06-26T14:04:50.156Z,6.17
2019-06-26T14:07:56.578Z,6.12
2019-06-26T14:11:03.096Z,6.25
2019-06-26T14:14:09.594Z,5.22
2019-06-26T14:17:16.109Z,5.78
2019-06-26T14:20:23.131Z,5.90
2019-06-26T14:23:29.572Z,5.80
2019-06-26T14:26:36.053Z,6.00
2019-06-26T14:29:42.517Z,5.67
2019-06-26T14:32:48.972Z,6.28
2019-06-26T14:35:55.447Z,6.80
2019-06-26T14:39:01.956Z,6.75
2019-06-26T14:42:10.033Z,7.97
2019-06-26T14:45:17.423Z,7.50
2019-06-26T14:48:25.149Z,8.30
2019-06-26T14:51:43.407Z,7.53
2019-06-26T14:54:39.793Z,7.75
2019-06-26T14:57:46.237Z,8.73
2019-06-26T15:00:53.000Z,9.15
2019-06-26T15:03:59.428Z,9.45
2019-06-26T15:07:06.166Z,8.55
2019-06-26T15:10:14.445Z,8.23
2019-06-26T15:13:20.884Z,7.90
2019-06-26T15:16:30.351Z,8.00
2019-06-26T15:19:35.538Z,8.78
2019-06-26T15:22:42.046Z,9.43
2019-06-26T15:25:48.548Z,7.75
2019-06-26T15:28:54.992Z,8.20
2019-06-26T15:32:01.489Z,10.15
2019-06-26T15:35:07.973Z,10.32
2019-06-26T15:38:14.696Z,10.18
2019-06-26T15:41:21.244Z,9.00
2019-06-26T15:44:27.622Z,8.48
2019-06-26T15:47:34.056Z,8.15
2019-06-26T15:50:40.727Z,7.87
2019-06-26T15:53:47.210Z,8.33
2019-06-26T15:56:53.670Z,7.92
2019-06-26T16:00:00.125Z,9.08
2019-06-26T16:03:06.685Z,8.63
2019-06-26T16:06:13.149Z,12.35
2019-06-26T16:09:19.682Z,12.28
2019-06-26T16:12:26.078Z,12.88
2019-06-26T16:15:33.039Z,12.88
2019-06-26T16:18:44.617Z,12.65
2019-06-26T16:21:51.029Z,11.60
2019-06-26T16:24:57.395Z,11.70
2019-06-26T16:28:05.690Z,12.00
2019-06-26T16:31:12.017Z,9.50
2019-06-26T16:34:18.614Z,7.72
2019-06-26T16:37:25.053Z,8.08
2019-06-26T16:40:31.546Z,7.65
2019-06-26T16:43:38.096Z,8.33
2019-06-26T16:46:44.625Z,7.92
2019-06-26T16:49:51.068Z,7.75
2019-06-26T16:52:57.860Z,9.58
2019-06-26T16:56:04.402Z,7.65
2019-06-26T16:59:10.943Z,8.95
2019-06-26T17:02:17.372Z,7.45
2019-06-26T17:05:24.804Z,9.33
2019-06-26T17:08:31.227Z,9.13
2019-06-26T17:11:38.218Z,9.88
2019-06-26T17:14:44.595Z,9.85
2019-06-26T17:17:51.050Z,10.10
2019-06-26T17:20:57.518Z,8.93
2019-06-26T17:24:06.126Z,10.00
2019-06-26T17:27:12.477Z,8.85
2019-06-26T17:30:19.278Z,9.00
2019-06-26T17:33:25.762Z,9.88
2019-06-26T17:36:32.232Z,9.03
2019-06-26T17:39:38.706Z,8.88
2019-06-26T17:42:45.211Z,9.90
2019-06-26T17:45:51.723Z,8.45
2019-06-26T17:48:58.255Z,8.45
2019-06-26T17:52:04.691Z,8.43
2019-06-26T17:55:11.357Z,9.33
2019-06-26T17:58:17.837Z,8.25
2019-06-26T18:01:24.237Z,7.55
2019-06-26T18:04:30.669Z,7.47
2019-06-26T18:07:37.396Z,8.15
2019-06-26T18:10:43.910Z,8.58
2019-06-26T18:13:50.837Z,8.20
2019-06-26T18:16:57.252Z,9.05
2019-06-26T18:20:03.943Z,7.25
2019-06-26T18:23:10.413Z,8.70
2019-06-26T18:26:17.940Z,7.58
2019-06-26T18:29:24.384Z,8.90
2019-06-26T18:32:31.243Z,9.38
2019-06-26T18:35:37.725Z,9.50
2019-06-26T18:38:44.196Z,9.85
2019-06-26T18:41:50.611Z,9.20
2019-06-26T18:44:57.099Z,8.50
2019-06-26T18:48:03.588Z,8.75
2019-06-26T18:51:10.088Z,9.38
2019-06-26T18:54:16.461Z,9.60
2019-06-26T18:57:23.127Z,9.68
2019-06-26T19:00:29.676Z,10.15
2019-06-26T19:03:36.238Z,9.18
2019-06-26T19:06:42.686Z,9.65
2019-06-26T19:09:49.255Z,9.33
2019-06-26T19:12:55.762Z,10.48
2019-06-26T19:16:04.659Z,10.15
2019-06-26T19:19:12.394Z,12.43
2019-06-26T19:22:19.040Z,12.03
2019-06-26T19:25:25.607Z,11.10
2019-06-26T19:28:32.086Z,11.12
2019-06-26T19:31:39.728Z,10.27
2019-06-26T19:34:46.182Z,9.88
2019-06-26T19:37:52.626Z,11.33
2019-06-26T19:40:59.507Z,9.50
2019-06-26T19:44:08.816Z,10.85
2019-06-26T19:47:14.383Z,9.85
2019-06-26T19:50:23.606Z,10.95
2019-06-26T19:53:29.931Z,10.38
2019-06-26T19:56:36.379Z,11.25
2019-06-26T19:59:43.358Z,10.93
2019-06-26T20:02:49.884Z,11.40
2019-06-26T20:05:56.418Z,12.70
2019-06-26T20:09:02.801Z,11.90
2019-06-26T20:12:10.559Z,10.65
2019-06-26T20:15:17.020Z,10.93
2019-06-26T20:18:24.017Z,11.78
2019-06-26T20:21:30.473Z,11.95
2019-06-26T20:24:43.947Z,14.93
2019-06-26T20:27:46.214Z,15.13
2019-06-26T20:30:52.723Z,12.58
2019-06-26T20:33:59.098Z,13.13
2019-06-26T20:37:05.542Z,13.18
2019-06-26T20:40:12.308Z,13.28
2019-06-26T20:43:18.687Z,11.33
2019-06-26T20:46:25.130Z,11.55
2019-06-26T20:49:32.586Z,13.20
2019-06-26T20:52:39.056Z,12.60
2019-06-26T20:55:45.589Z,12.73
2019-06-26T20:58:52.105Z,13.15
2019-06-26T21:02:00.186Z,13.35
2019-06-26T21:05:07.072Z,12.53
2019-06-26T21:08:13.558Z,13.58
2019-06-26T21:11:21.483Z,12.20
2019-06-26T21:14:28.011Z,12.95
2019-06-26T21:17:34.432Z,12.98
2019-06-26T21:20:41.195Z,12.25
2019-06-26T21:23:47.637Z,11.78
2019-06-26T21:26:54.056Z,12.20
2019-06-26T21:30:02.810Z,12.98
2019-06-26T21:33:09.470Z,13.53
2019-06-26T21:36:18.157Z,13.55
2019-06-26T21:39:24.617Z,16.70
2019-06-26T21:42:31.138Z,13.30
2019-06-26T21:45:37.590Z,10.98
2019-06-26T21:48:44.038Z,12.78
2019-06-26T21:51:50.494Z,11.97
2019-06-26T21:54:57.437Z,12.58
2019-06-26T21:58:21.885Z,13.43
2019-06-26T22:01:46.436Z,10.88
2019-06-26T22:05:12.577Z,10.68
2019-06-26T22:08:27.093Z,12.05
2019-06-26T22:11:35.237Z,11.25
2019-06-26T22:14:41.660Z,12.50
2019-06-26T22:17:48.368Z,12.00
2019-06-26T22:20:55.134Z,13.32
2019-06-26T22:24:01.836Z,12.18
2019-06-26T22:27:08.605Z,11.65
2019-06-26T22:30:15.784Z,11.68
2019-06-26T22:33:22.308Z,12.93
2019-06-26T22:36:28.804Z,12.70
2019-06-26T22:39:35.269Z,12.82
2019-06-26T22:42:41.821Z,13.75
2019-06-26T22:45:48.254Z,11.83
2019-06-26T22:48:56.165Z,12.18
2019-06-26T22:52:02.604Z,12.28
2019-06-26T22:55:09.315Z,12.55
2019-06-26T22:58:16.052Z,11.60
2019-06-26T23:01:22.573Z,12.47
2019-06-26T23:04:30.622Z,12.03
2019-06-26T23:07:37.563Z,11.85
2019-06-26T23:10:43.963Z,11.35
2019-06-26T23:13:50.491Z,10.55
2019-06-26T23:16:56.945Z,10.55
2019-06-26T23:20:04.296Z,11.03
2019-06-26T23:23:11.395Z,9.35
2019-06-26T23:26:23.798Z,10.80
2019-06-26T23:29:26.200Z,10.72
2019-06-26T23:32:32.718Z,9.80
2019-06-26T23:35:40.035Z,9.08
2019-06-26T23:38:46.566Z,8.35
2019-06-26T23:41:54.565Z,8.50
2019-06-26T23:45:01.140Z,8.03
2019-06-26T23:48:07.582Z,7.45
2019-06-26T23:51:14.056Z,7.05
2019-06-26T23:54:20.550Z,6.53
2019-06-26T23:57:27.153Z,6.75
